Time;durP1;ratioP1;P1;durP2;ratioP2;P2;SDS_P1;SDS_P2;PMS_P1;PMS_P2;Temp;Humidity;BMP_temperature;BMP_pressure;BME280_temperature;BME280_humidity;BME280_pressure;Samples;Min_cycle;Max_cycle;Signal;HPM_P1;HPM_P2
2022/11/21 00:01:28;;;;;;;4.97;4.57;;;;;;;;;;5058028;28;20205;-72
2022/11/21 00:03:56;;;;;;;4.65;4.25;;;;;;;;;;5057525;28;20215;-72
2022/11/21 00:06:24;;;;;;;4.00;3.70;;;;;;;;;;5058079;28;20197;-72
2022/11/21 00:08:51;;;;;;;4.15;3.85;;;;;;;;;;5058398;28;20232;-73
2022/11/21 00:11:19;;;;;;;4.57;3.60;;;;;;;;;;5058331;28;20205;-72
2022/11/21 00:13:47;;;;;;;3.92;3.63;;;;;;;;;;5057556;28;20282;-72
2022/11/21 00:16:17;;;;;;;4.07;3.78;;;;;;;;;;5058628;28;20205;-72
2022/11/21 00:18:45;;;;;;;3.25;3.03;;;;;;;;;;5058214;28;20205;-72
2022/11/21 00:21:13;;;;;;;3.47;3.20;;;;;;;;;;5058332;28;20209;-72
2022/11/21 00:23:41;;;;;;;3.00;2.80;;;;;;;;;;5058120;28;20201;-72
2022/11/21 00:26:09;;;;;;;3.50;3.20;;;;;;;;;;5057772;28;20278;-72
2022/11/21 00:28:37;;;;;;;3.30;3.00;;;;;;;;;;5057934;28;20205;-72
2022/11/21 00:31:05;;;;;;;2.90;2.70;;;;;;;;;;5058263;28;20216;-72
2022/11/21 00:33:35;;;;;;;3.05;2.85;;;;;;;;;;5057914;28;20229;-72
2022/11/21 00:36:07;;;;;;;2.88;2.67;;;;;;;;;;5057667;28;20209;-72
2022/11/21 00:38:34;;;;;;;3.20;2.72;;;;;;;;;;5057787;28;20299;-72
2022/11/21 00:41:02;;;;;;;2.85;2.65;;;;;;;;;;5058295;28;20300;-73
2022/11/21 00:43:30;;;;;;;2.70;2.50;;;;;;;;;;5057795;28;20209;-72
2022/11/21 00:46:00;;;;;;;2.47;2.28;;;;;;;;;;5057997;28;20251;-72
2022/11/21 00:48:27;;;;;;;2.50;2.30;;;;;;;;;;5057547;28;20740;-73
2022/11/21 00:50:57;;;;;;;2.95;2.20;;;;;;;;;;5058310;28;20292;-72
2022/11/21 00:53:24;;;;;;;2.42;2.22;;;;;;;;;;5057481;28;20236;-72
2022/11/21 00:55:52;;;;;;;2.00;1.90;;;;;;;;;;5057082;28;20215;-72
2022/11/21 00:58:20;;;;;;;2.63;2.42;;;;;;;;;;5057535;28;20205;-72
2022/11/21 01:00:47;;;;;;;2.50;2.30;;;;;;;;;;5057091;28;20225;-72
2022/11/21 01:03:15;;;;;;;2.25;2.05;;;;;;;;;;5057267;28;20529;-72
2022/11/21 01:05:43;;;;;;;1.95;1.85;;;;;;;;;;5056668;28;20204;-72
2022/11/21 01:08:13;;;;;;;2.08;1.98;;;;;;;;;;5057231;28;20251;-71
2022/11/21 01:10:40;;;;;;;1.90;1.80;;;;;;;;;;5057765;28;20205;-71
2022/11/21 01:13:08;;;;;;;2.33;1.90;;;;;;;;;;5057309;28;20239;-72
2022/11/21 01:15:36;;;;;;;1.80;1.70;;;;;;;;;;5057343;28;20232;-72
2022/11/21 01:18:04;;;;;;;1.80;1.70;;;;;;;;;;5057449;28;20232;-72
2022/11/21 01:20:32;;;;;;;1.73;1.60;;;;;;;;;;5056977;28;20627;-71
2022/11/21 01:22:59;;;;;;;1.70;1.60;;;;;;;;;;5057422;28;20201;-72
2022/11/21 01:25:28;;;;;;;1.67;1.58;;;;;;;;;;5056618;28;20216;-72
2022/11/21 01:27:56;;;;;;;1.67;1.58;;;;;;;;;;5057237;28;20247;-72
2022/11/21 01:30:24;;;;;;;1.65;1.55;;;;;;;;;;5057044;28;20228;-72
2022/11/21 01:32:52;;;;;;;1.48;1.38;;;;;;;;;;5057265;28;20487;-72
2022/11/21 01:35:20;;;;;;;1.75;1.65;;;;;;;;;;5057338;28;20236;-72
2022/11/21 01:37:48;;;;;;;1.40;1.30;;;;;;;;;;5056679;28;20215;-72
2022/11/21 01:40:16;;;;;;;1.50;1.40;;;;;;;;;;5057489;28;20478;-72
2022/11/21 01:43:04;;;;;;;1.45;1.35;;;;;;;;;;5056726;28;20628;-72
2022/11/21 01:45:55;;;;;;;1.40;1.27;;;;;;;;;;5052767;28;20309;-72
2022/11/21 01:48:26;;;;;;;1.25;1.10;;;;;;;;;;5042448;28;20215;-72
2022/11/21 01:50:55;;;;;;;1.33;1.23;;;;;;;;;;5056933;28;20209;-72
2022/11/21 01:53:23;;;;;;;1.25;1.15;;;;;;;;;;5057140;28;20225;-72
2022/11/21 01:55:51;;;;;;;1.27;1.17;;;;;;;;;;5056968;28;20209;-72
2022/11/21 01:58:22;;;;;;;1.20;1.10;;;;;;;;;;5057010;28;20613;-72
2022/11/21 02:00:50;;;;;;;1.00;1.00;;;;;;;;;;5057110;28;20267;-71
2022/11/21 02:03:21;;;;;;;1.10;1.05;;;;;;;;;;5057144;28;20284;-71
2022/11/21 02:05:50;;;;;;;1.10;1.00;;;;;;;;;;5056808;28;20575;-72
2022/11/21 02:08:20;;;;;;;1.10;1.00;;;;;;;;;;5057140;28;20205;-73
2022/11/21 02:10:51;;;;;;;1.20;1.10;;;;;;;;;;5056597;28;20212;-72
2022/11/21 02:13:21;;;;;;;1.20;1.10;;;;;;;;;;5057160;28;20225;-72
2022/11/21 02:15:49;;;;;;;1.00;1.00;;;;;;;;;;5057007;28;20240;-72
2022/11/21 02:18:17;;;;;;;1.30;1.20;;;;;;;;;;5056879;28;20545;-72
2022/11/21 02:20:47;;;;;;;1.10;1.00;;;;;;;;;;5056804;28;20205;-72
2022/11/21 02:23:18;;;;;;;1.23;1.13;;;;;;;;;;5057061;28;20255;-72
2022/11/21 02:25:47;;;;;;;0.90;0.90;;;;;;;;;;5056812;28;20496;-72
2022/11/21 02:28:17;;;;;;;1.05;0.95;;;;;;;;;;5056775;28;20207;-72
2022/11/21 02:30:45;;;;;;;0.90;0.90;;;;;;;;;;5056553;28;20492;-72
2022/11/21 02:33:13;;;;;;;0.88;0.88;;;;;;;;;;5056755;28;20492;-72
2022/11/21 02:35:41;;;;;;;0.70;0.70;;;;;;;;;;5056344;28;20306;-72
2022/11/21 02:38:12;;;;;;;0.95;0.90;;;;;;;;;;5060322;28;20205;-71
2022/11/21 02:40:40;;;;;;;1.10;1.00;;;;;;;;;;5060376;28;20597;-71
2022/11/21 02:43:11;;;;;;;0.80;0.80;;;;;;;;;;5060089;28;20209;-72
2022/11/21 02:45:40;;;;;;;1.00;0.90;;;;;;;;;;5060003;28;20216;-72
2022/11/21 02:48:08;;;;;;;0.80;0.80;;;;;;;;;;5060317;28;20212;-72
2022/11/21 02:50:36;;;;;;;0.80;0.70;;;;;;;;;;5059660;28;20212;-72
2022/11/21 02:53:04;;;;;;;0.70;0.70;;;;;;;;;;5059541;28;20209;-71
2022/11/21 02:55:32;;;;;;;1.13;0.90;;;;;;;;;;5060040;28;20213;-71
2022/11/21 02:58:00;;;;;;;0.70;0.70;;;;;;;;;;5060106;28;20205;-71
2022/11/21 03:00:29;;;;;;;0.70;0.70;;;;;;;;;;5060030;28;20298;-71
2022/11/21 03:02:57;;;;;;;0.82;0.80;;;;;;;;;;5060314;28;20213;-71
2022/11/21 03:05:25;;;;;;;0.75;0.75;;;;;;;;;;5059683;28;20201;-71
2022/11/21 03:07:52;;;;;;;0.70;0.70;;;;;;;;;;5059549;28;20213;-72
2022/11/21 03:10:21;;;;;;;0.60;0.60;;;;;;;;;;5060184;28;20205;-71
2022/11/21 03:12:48;;;;;;;0.80;0.70;;;;;;;;;;5059858;28;20568;-73
2022/11/21 03:15:16;;;;;;;0.93;0.60;;;;;;;;;;5059884;28;20233;-72
2022/11/21 03:17:49;;;;;;;0.75;0.70;;;;;;;;;;5059587;28;20208;-71
2022/11/21 03:20:17;;;;;;;0.88;0.75;;;;;;;;;;5059609;28;20496;-72
2022/11/21 03:22:45;;;;;;;0.60;0.60;;;;;;;;;;5059134;28;20298;-72
2022/11/21 03:25:12;;;;;;;0.60;0.57;;;;;;;;;;5059336;28;20201;-72
2022/11/21 03:27:41;;;;;;;0.70;0.70;;;;;;;;;;5058850;28;20209;-72
2022/11/21 03:30:09;;;;;;;0.68;0.68;;;;;;;;;;5059069;28;20249;-72
2022/11/21 03:32:37;;;;;;;1.60;0.73;;;;;;;;;;5059326;28;20224;-72
2022/11/21 03:35:06;;;;;;;0.70;0.60;;;;;;;;;;5058882;28;20241;-72
2022/11/21 03:37:34;;;;;;;0.70;0.60;;;;;;;;;;5059194;28;20599;-72
2022/11/21 03:40:02;;;;;;;0.50;0.50;;;;;;;;;;5059423;28;20212;-72
2022/11/21 03:42:30;;;;;;;0.60;0.60;;;;;;;;;;5059172;28;20288;-71
2022/11/21 03:44:57;;;;;;;0.70;0.70;;;;;;;;;;5059125;28;20224;-71
2022/11/21 03:47:26;;;;;;;0.52;0.52;;;;;;;;;;5058979;28;20335;-71
2022/11/21 03:49:54;;;;;;;0.77;0.52;;;;;;;;;;5058966;28;20297;-71
2022/11/21 03:52:23;;;;;;;0.60;0.57;;;;;;;;;;5058514;28;20211;-71
2022/11/21 03:54:50;;;;;;;0.45;0.40;;;;;;;;;;5058974;28;20236;-71
2022/11/21 03:57:18;;;;;;;0.57;0.50;;;;;;;;;;5058415;28;20211;-71
2022/11/21 03:59:46;;;;;;;0.50;0.50;;;;;;;;;;5058577;28;20243;-71
2022/11/21 04:02:14;;;;;;;0.45;0.40;;;;;;;;;;5058962;28;20484;-72
2022/11/21 04:04:42;;;;;;;0.60;0.52;;;;;;;;;;5058739;28;20288;-71
2022/11/21 04:07:09;;;;;;;0.80;0.55;;;;;;;;;;5058537;28;20204;-72
2022/11/21 04:09:38;;;;;;;0.50;0.50;;;;;;;;;;5058835;28;20586;-72
2022/11/21 04:12:06;;;;;;;0.50;0.50;;;;;;;;;;5058678;28;20255;-71
2022/11/21 04:14:34;;;;;;;0.60;0.60;;;;;;;;;;5058168;28;20225;-71
2022/11/21 04:17:02;;;;;;;0.50;0.50;;;;;;;;;;5058422;28;20215;-71
2022/11/21 04:19:29;;;;;;;0.40;0.40;;;;;;;;;;5058392;28;20205;-71
2022/11/21 04:21:57;;;;;;;0.80;0.60;;;;;;;;;;5058736;28;20212;-72
2022/11/21 04:24:25;;;;;;;0.60;0.50;;;;;;;;;;5058101;28;20205;-71
2022/11/21 04:26:54;;;;;;;0.50;0.50;;;;;;;;;;5057892;28;20205;-70
2022/11/21 04:29:22;;;;;;;0.55;0.50;;;;;;;;;;5057866;28;20590;-71
2022/11/21 04:31:50;;;;;;;0.50;0.50;;;;;;;;;;5058058;28;20295;-71
2022/11/21 04:34:18;;;;;;;0.75;0.40;;;;;;;;;;5057571;28;20290;-71
2022/11/21 04:36:46;;;;;;;0.40;0.40;;;;;;;;;;5058006;28;20205;-71
2022/11/21 04:39:13;;;;;;;0.50;0.50;;;;;;;;;;5058025;28;20213;-71
2022/11/21 04:41:41;;;;;;;0.80;0.50;;;;;;;;;;5057715;28;20208;-71
2022/11/21 04:44:10;;;;;;;0.50;0.47;;;;;;;;;;5057367;28;20288;-71
2022/11/21 04:46:38;;;;;;;0.30;0.30;;;;;;;;;;5057491;28;20616;-71
2022/11/21 04:49:06;;;;;;;0.40;0.40;;;;;;;;;;5057152;28;20284;-71
2022/11/21 04:51:33;;;;;;;0.70;0.50;;;;;;;;;;5057241;28;20201;-71
2022/11/21 04:54:01;;;;;;;0.50;0.50;;;;;;;;;;5057188;28;20233;-72
2022/11/21 04:56:29;;;;;;;0.70;0.50;;;;;;;;;;5057578;28;20484;-72
2022/11/21 04:58:56;;;;;;;0.60;0.50;;;;;;;;;;5057145;28;20288;-71
2022/11/21 05:01:25;;;;;;;0.55;0.50;;;;;;;;;;5057483;28;20582;-71
2022/11/21 05:03:53;;;;;;;0.40;0.40;;;;;;;;;;5057093;28;20205;-71
2022/11/21 05:06:20;;;;;;;0.60;0.47;;;;;;;;;;5057321;28;20239;-72
2022/11/21 05:08:48;;;;;;;0.47;0.40;;;;;;;;;;5057012;28;20636;-71
2022/11/21 05:14:00;;;;;;;0.50;0.40;;;;;;;;;;5056897;28;20196;-71
2022/11/21 05:16:29;;;;;;;0.57;0.43;;;;;;;;;;5056249;28;20274;-72
2022/11/21 05:18:56;;;;;;;0.40;0.40;;;;;;;;;;5054342;28;20204;-71
2022/11/21 05:21:24;;;;;;;0.60;0.50;;;;;;;;;;5056530;28;20205;-71
2022/11/21 05:23:51;;;;;;;0.40;0.40;;;;;;;;;;5056913;28;20208;-71
2022/11/21 05:26:19;;;;;;;0.45;0.45;;;;;;;;;;5055802;28;20205;-71
2022/11/21 05:28:47;;;;;;;0.43;0.43;;;;;;;;;;5055735;28;20205;-72
2022/11/21 05:31:14;;;;;;;0.55;0.30;;;;;;;;;;5056291;28;20225;-72
2022/11/21 05:33:43;;;;;;;0.70;0.40;;;;;;;;;;5056170;28;20215;-72
2022/11/21 05:36:10;;;;;;;0.30;0.30;;;;;;;;;;5055916;28;20226;-72
2022/11/21 05:38:38;;;;;;;0.40;0.40;;;;;;;;;;5056266;28;20205;-72
2022/11/21 05:41:05;;;;;;;0.40;0.32;;;;;;;;;;5055766;28;20197;-72
2022/11/21 05:43:47;;;;;;;0.32;0.30;;;;;;;;;;5055921;28;20205;-72
2022/11/21 05:46:15;;;;;;;1.65;0.40;;;;;;;;;;5055520;28;20546;-72
2022/11/21 05:48:44;;;;;;;0.40;0.40;;;;;;;;;;5055328;28;20204;-72
2022/11/21 05:51:12;;;;;;;0.50;0.40;;;;;;;;;;5055888;28;20204;-72
2022/11/21 05:53:39;;;;;;;0.57;0.35;;;;;;;;;;5054747;28;20699;-72
2022/11/21 05:56:08;;;;;;;0.40;0.30;;;;;;;;;;5053993;28;20644;-72
2022/11/21 05:58:35;;;;;;;0.40;0.40;;;;;;;;;;5054423;28;20615;-71
2022/11/21 06:01:02;;;;;;;0.40;0.40;;;;;;;;;;5053952;28;20233;-72
2022/11/21 06:03:31;;;;;;;0.47;0.40;;;;;;;;;;5054269;28;20197;-72
2022/11/21 06:06:10;;;;;;;0.60;0.40;;;;;;;;;;5054448;28;20266;-72
2022/11/21 06:08:38;;;;;;;0.30;0.30;;;;;;;;;;5054129;28;20465;-72
2022/11/21 06:11:06;;;;;;;0.40;0.40;;;;;;;;;;5054709;28;20201;-72
2022/11/21 06:13:33;;;;;;;0.30;0.30;;;;;;;;;;5058287;28;20204;-71
2022/11/21 06:16:02;;;;;;;0.52;0.30;;;;;;;;;;5057637;28;20236;-72
2022/11/21 06:18:29;;;;;;;0.55;0.40;;;;;;;;;;5055210;28;20202;-72
2022/11/21 06:21:01;;;;;;;0.25;0.22;;;;;;;;;;5057251;28;20227;-72
2022/11/21 06:23:30;;;;;;;0.32;0.32;;;;;;;;;;5057187;28;20209;-71
2022/11/21 06:25:58;;;;;;;0.52;0.38;;;;;;;;;;5057489;28;20201;-71
2022/11/21 06:28:25;;;;;;;0.43;0.40;;;;;;;;;;5055523;28;20208;-71
2022/11/21 06:30:53;;;;;;;0.47;0.30;;;;;;;;;;5057380;28;20201;-71
2022/11/21 06:33:20;;;;;;;0.40;0.40;;;;;;;;;;5057266;28;20215;-72
2022/11/21 06:35:48;;;;;;;0.30;0.28;;;;;;;;;;5057988;28;20240;-72
2022/11/21 06:38:17;;;;;;;0.40;0.40;;;;;;;;;;5057544;28;20265;-72
2022/11/21 06:40:46;;;;;;;0.30;0.20;;;;;;;;;;5057018;28;20960;-71
2022/11/21 06:43:14;;;;;;;0.60;0.40;;;;;;;;;;5056796;28;20205;-72
2022/11/21 06:45:41;;;;;;;0.57;0.40;;;;;;;;;;5056589;28;20205;-71
2022/11/21 06:48:08;;;;;;;0.45;0.40;;;;;;;;;;5056212;28;20205;-72
2022/11/21 06:50:37;;;;;;;0.50;0.30;;;;;;;;;;5056507;28;20205;-72
2022/11/21 06:53:05;;;;;;;0.30;0.30;;;;;;;;;;5057292;28;20226;-71
2022/11/21 06:55:32;;;;;;;0.40;0.40;;;;;;;;;;5056657;28;20228;-72
2022/11/21 06:58:01;;;;;;;0.30;0.30;;;;;;;;;;5057530;28;20490;-71
2022/11/21 07:00:29;;;;;;;0.77;0.30;;;;;;;;;;5056689;28;20237;-72
2022/11/21 07:03:01;;;;;;;0.30;0.20;;;;;;;;;;5056623;28;20211;-72
2022/11/21 07:05:28;;;;;;;0.32;0.30;;;;;;;;;;5056895;28;20224;-72
2022/11/21 07:07:58;;;;;;;0.28;0.28;;;;;;;;;;5057900;28;20515;-71
2022/11/21 07:10:25;;;;;;;0.32;0.32;;;;;;;;;;5057280;28;20209;-72
2022/11/21 07:15:39;;;;;;;0.40;0.40;;;;;;;;;;5056429;28;20755;-72
2022/11/21 07:18:07;;;;;;;0.40;0.30;;;;;;;;;;5057724;28;20606;-72
2022/11/21 07:20:34;;;;;;;0.30;0.30;;;;;;;;;;5057560;28;20231;-72
2022/11/21 07:23:01;;;;;;;0.30;0.30;;;;;;;;;;5054927;28;20509;-72
2022/11/21 07:25:29;;;;;;;0.22;0.22;;;;;;;;;;5057413;28;20209;-72
2022/11/21 07:27:58;;;;;;;0.40;0.40;;;;;;;;;;5056048;28;20223;-72
2022/11/21 07:30:26;;;;;;;0.30;0.30;;;;;;;;;;5056177;28;20216;-72
2022/11/21 07:32:57;;;;;;;1.05;0.40;;;;;;;;;;5057075;28;20200;-71
2022/11/21 07:35:24;;;;;;;0.60;0.50;;;;;;;;;;5057024;28;20221;-71
2022/11/21 07:37:52;;;;;;;0.32;0.30;;;;;;;;;;5057146;28;20594;-71
2022/11/21 07:40:20;;;;;;;0.38;0.30;;;;;;;;;;5057493;28;20308;-72
2022/11/21 07:42:47;;;;;;;0.98;0.38;;;;;;;;;;5056554;28;20205;-71
2022/11/21 07:45:15;;;;;;;0.45;0.30;;;;;;;;;;5056644;28;20623;-71
2022/11/21 07:47:43;;;;;;;0.57;0.30;;;;;;;;;;5057044;28;20207;-71
2022/11/21 07:50:12;;;;;;;0.70;0.45;;;;;;;;;;5056760;28;20204;-71
2022/11/21 07:52:40;;;;;;;0.90;0.30;;;;;;;;;;5056655;28;20211;-71
2022/11/21 07:55:08;;;;;;;0.38;0.32;;;;;;;;;;5056534;28;20232;-71
2022/11/21 07:57:35;;;;;;;1.52;0.50;;;;;;;;;;5057048;28;20216;-71
2022/11/21 08:00:03;;;;;;;0.47;0.38;;;;;;;;;;5055309;28;20239;-71
2022/11/21 08:02:30;;;;;;;0.50;0.40;;;;;;;;;;5056191;28;20456;-71
2022/11/21 08:04:58;;;;;;;0.65;0.30;;;;;;;;;;5056253;28;20695;-70
2022/11/21 08:07:26;;;;;;;0.80;0.45;;;;;;;;;;5055849;28;20600;-71
2022/11/21 08:09:54;;;;;;;1.25;0.40;;;;;;;;;;5056158;28;20200;-70
2022/11/21 08:12:21;;;;;;;0.70;0.50;;;;;;;;;;5055143;28;20217;-70
2022/11/21 08:14:49;;;;;;;1.02;0.50;;;;;;;;;;5055366;28;20201;-70
2022/11/21 08:17:17;;;;;;;1.65;0.65;;;;;;;;;;5055433;28;20205;-70
2022/11/21 08:19:44;;;;;;;0.60;0.40;;;;;;;;;;5055196;28;20213;-70
2022/11/21 08:22:12;;;;;;;0.82;0.52;;;;;;;;;;5054775;28;20575;-71
2022/11/21 08:24:40;;;;;;;0.80;0.60;;;;;;;;;;5055091;28;20205;-71
2022/11/21 08:27:08;;;;;;;1.40;0.60;;;;;;;;;;5055302;28;20372;-71
2022/11/21 08:29:35;;;;;;;1.48;0.60;;;;;;;;;;5054599;28;20209;-71
2022/11/21 08:32:02;;;;;;;0.75;0.50;;;;;;;;;;5054679;28;20196;-71
2022/11/21 08:34:32;;;;;;;0.95;0.50;;;;;;;;;;5054967;28;20308;-71
2022/11/21 08:37:01;;;;;;;2.55;0.50;;;;;;;;;;5054831;28;20224;-70
2022/11/21 08:39:29;;;;;;;0.82;0.60;;;;;;;;;;5055267;28;20213;-71
2022/11/21 08:42:05;;;;;;;1.98;0.70;;;;;;;;;;5054233;28;20196;-71
2022/11/21 08:44:32;;;;;;;0.60;0.50;;;;;;;;;;5055717;28;20232;-71
2022/11/21 08:47:00;;;;;;;1.27;0.73;;;;;;;;;;5056179;28;20201;-71
2022/11/21 08:49:27;;;;;;;1.88;0.60;;;;;;;;;;5054684;28;20196;-71
2022/11/21 08:51:55;;;;;;;0.55;0.55;;;;;;;;;;5055295;28;20205;-70
2022/11/21 08:54:24;;;;;;;1.50;0.50;;;;;;;;;;5054695;28;20205;-70
2022/11/21 08:56:51;;;;;;;1.60;0.60;;;;;;;;;;5053968;28;20236;-70
2022/11/21 08:59:20;;;;;;;0.90;0.47;;;;;;;;;;5055370;28;20236;-71
2022/11/21 09:01:47;;;;;;;1.38;0.50;;;;;;;;;;5056199;28;20197;-71
2022/11/21 09:04:15;;;;;;;2.50;1.70;;;;;;;;;;5055281;28;20220;-71
2022/11/21 09:06:42;;;;;;;5.90;3.05;;;;;;;;;;5054670;28;20200;-71
2022/11/21 09:09:10;;;;;;;4.93;2.95;;;;;;;;;;5055059;28;20211;-70
2022/11/21 09:11:37;;;;;;;4.32;2.85;;;;;;;;;;5054106;28;20598;-70
2022/11/21 09:19:35;;;;;;;2.97;2.20;;;;;;;;;;5055114;28;20652;-71
2022/11/21 09:22:03;;;;;;;4.20;2.60;;;;;;;;;;5054691;28;20204;-71
2022/11/21 09:24:30;;;;;;;3.28;2.42;;;;;;;;;;5053995;28;20196;-71
2022/11/21 09:26:57;;;;;;;4.28;2.42;;;;;;;;;;5054806;28;20236;-71
2022/11/21 09:29:25;;;;;;;3.97;2.50;;;;;;;;;;5053695;28;20208;-70
2022/11/21 09:31:54;;;;;;;3.20;2.55;;;;;;;;;;5054156;28;20613;-70
2022/11/21 09:34:21;;;;;;;3.50;2.33;;;;;;;;;;5054496;28;20255;-70
2022/11/21 09:36:48;;;;;;;3.67;3.38;;;;;;;;;;5055067;28;20561;-71
2022/11/21 09:39:16;;;;;;;14.35;13.25;;;;;;;;;;5053356;28;20327;-71
2022/11/21 09:41:52;;;;;;;10.65;9.55;;;;;;;;;;5046186;28;20620;-71
2022/11/21 09:44:34;;;;;;;8.52;7.70;;;;;;;;;;5034456;28;20215;-71
2022/11/21 09:47:05;;;;;;;8.23;7.43;;;;;;;;;;5031468;28;20198;-71
2022/11/21 09:49:38;;;;;;;7.93;7.15;;;;;;;;;;5033541;28;20267;-71
2022/11/21 09:52:06;;;;;;;7.55;6.85;;;;;;;;;;5033150;28;20296;-71
2022/11/21 09:54:35;;;;;;;7.00;6.30;;;;;;;;;;5034465;28;20336;-71
2022/11/21 09:57:02;;;;;;;7.28;6.57;;;;;;;;;;5034754;28;20233;-71
2022/11/21 09:59:33;;;;;;;6.20;5.70;;;;;;;;;;5034199;28;20230;-71
2022/11/21 10:02:00;;;;;;;6.53;5.53;;;;;;;;;;5033604;28;20201;-71
2022/11/21 10:04:29;;;;;;;6.60;5.32;;;;;;;;;;5034165;28;20201;-71
2022/11/21 10:07:01;;;;;;;6.07;5.10;;;;;;;;;;5033418;28;20263;-71
2022/11/21 10:09:38;;;;;;;6.38;5.07;;;;;;;;;;5033619;28;20279;-71
2022/11/21 10:15:03;;;;;;;4.50;4.10;;;;;;;;;;5032731;28;20587;-71
2022/11/21 10:17:37;;;;;;;5.95;4.53;;;;;;;;;;5032699;28;20256;-72
2022/11/21 10:20:20;;;;;;;4.30;3.90;;;;;;;;;;5034513;28;20204;-71
2022/11/21 10:22:56;;;;;;;4.50;3.90;;;;;;;;;;5030603;28;20202;-71
2022/11/21 10:25:25;;;;;;;4.10;3.80;;;;;;;;;;5033407;28;20201;-71
2022/11/21 10:27:55;;;;;;;4.20;3.80;;;;;;;;;;5034311;28;20202;-71
2022/11/21 10:30:23;;;;;;;3.92;3.30;;;;;;;;;;5033663;28;20729;-71
2022/11/21 10:32:53;;;;;;;4.03;3.38;;;;;;;;;;5034053;28;20297;-71
2022/11/21 10:35:22;;;;;;;3.83;3.20;;;;;;;;;;5033706;28;20267;-71
2022/11/21 10:37:53;;;;;;;3.70;3.25;;;;;;;;;;5034482;28;20198;-71
2022/11/21 10:40:29;;;;;;;4.57;3.03;;;;;;;;;;5033778;28;20206;-70
2022/11/21 10:42:59;;;;;;;3.53;3.15;;;;;;;;;;5034197;28;20205;-71
2022/11/21 10:45:46;;;;;;;3.30;2.72;;;;;;;;;;5034121;28;20209;-71
2022/11/21 10:48:13;;;;;;;3.78;2.70;;;;;;;;;;5033241;28;20559;-72
2022/11/21 10:50:45;;;;;;;3.33;2.55;;;;;;;;;;5031469;28;20587;-71
2022/11/21 10:56:03;;;;;;;2.80;2.50;;;;;;;;;;5033108;28;20534;-71
2022/11/21 10:58:36;;;;;;;26.88;24.52;;;;;;;;;;5036291;28;20210;-71
2022/11/21 11:01:03;;;;;;;18.35;16.75;;;;;;;;;;5036389;28;20299;-71
2022/11/21 11:03:32;;;;;;;13.98;12.70;;;;;;;;;;5036163;28;20201;-71
2022/11/21 11:06:00;;;;;;;13.00;11.90;;;;;;;;;;5036379;28;20198;-71
2022/11/21 11:08:30;;;;;;;13.43;12.20;;;;;;;;;;5043554;28;20224;-71
2022/11/21 11:11:02;;;;;;;11.77;10.80;;;;;;;;;;5035833;28;20198;-71
2022/11/21 11:13:36;;;;;;;11.85;10.85;;;;;;;;;;5036815;28;20216;-71
2022/11/21 11:16:14;;;;;;;9.77;9.02;;;;;;;;;;5036520;28;20257;-71
2022/11/21 11:18:46;;;;;;;9.57;8.70;;;;;;;;;;5036899;28;20201;-71
2022/11/21 11:21:15;;;;;;;9.25;8.55;;;;;;;;;;5036509;28;20212;-71
2022/11/21 11:23:44;;;;;;;8.73;8.02;;;;;;;;;;5036629;28;20206;-71
2022/11/21 11:26:22;;;;;;;8.45;7.68;;;;;;;;;;5035975;28;20204;-71
2022/11/21 11:28:50;;;;;;;8.13;7.40;;;;;;;;;;5036179;28;20210;-71
2022/11/21 11:31:17;;;;;;;8.10;7.30;;;;;;;;;;5036229;28;20216;-71
2022/11/21 11:33:51;;;;;;;7.40;6.80;;;;;;;;;;5035952;28;20198;-71
2022/11/21 11:36:24;;;;;;;7.30;6.70;;;;;;;;;;5036462;28;20229;-71
2022/11/21 11:38:56;;;;;;;7.07;6.47;;;;;;;;;;5035806;28;20796;-71
2022/11/21 11:47:29;;;;;;;6.35;5.85;;;;;;;;;;5035790;28;20248;-71
2022/11/21 11:47:33;;;;;;;5.75;5.25;;;;;;;;;;5042378;28;20209;-71
2022/11/21 11:50:12;;;;;;;5.57;5.15;;;;;;;;;;5047435;28;20205;-72
2022/11/21 11:52:44;;;;;;;5.25;4.85;;;;;;;;;;5054316;28;20614;-71
2022/11/21 11:55:17;;;;;;;5.10;4.70;;;;;;;;;;5053301;28;20291;-71
2022/11/21 11:57:45;;;;;;;4.70;4.40;;;;;;;;;;5054389;28;20295;-71
2022/11/21 12:00:21;;;;;;;4.70;4.40;;;;;;;;;;5053770;28;20233;-71
2022/11/21 12:02:52;;;;;;;4.43;4.03;;;;;;;;;;5049291;28;20197;-71
2022/11/21 12:05:23;;;;;;;4.65;4.28;;;;;;;;;;5052240;28;20500;-71
2022/11/21 12:07:57;;;;;;;4.40;4.05;;;;;;;;;;5054368;28;20593;-71
2022/11/21 12:10:29;;;;;;;4.05;3.75;;;;;;;;;;5052614;28;20577;-71
2022/11/21 12:12:59;;;;;;;4.13;3.83;;;;;;;;;;5053594;28;20296;-71
2022/11/21 12:18:27;;;;;;;4.00;3.70;;;;;;;;;;5007203;28;20315;-71
2022/11/21 12:20:58;;;;;;;4.00;3.70;;;;;;;;;;5054357;28;20620;-71
2022/11/21 12:23:27;;;;;;;3.90;3.60;;;;;;;;;;5039982;28;20204;-72
2022/11/21 12:26:04;;;;;;;3.42;3.13;;;;;;;;;;5034836;28;20202;-71
2022/11/21 12:28:35;;;;;;;3.67;3.38;;;;;;;;;;5034692;28;20212;-71
2022/11/21 12:31:07;;;;;;;3.30;3.00;;;;;;;;;;5034726;28;20237;-71
2022/11/21 12:33:38;;;;;;;3.67;3.38;;;;;;;;;;5049478;28;20200;-71
2022/11/21 12:36:11;;;;;;;6.15;5.55;;;;;;;;;;5054286;28;20205;-71
2022/11/21 12:38:51;;;;;;;5.40;4.90;;;;;;;;;;5054581;28;20214;-70
2022/11/21 12:44:14;;;;;;;5.07;4.57;;;;;;;;;;5033905;28;20323;-71
2022/11/21 12:46:47;;;;;;;4.88;4.47;;;;;;;;;;5034107;28;20198;-71
2022/11/21 12:55:20;;;;;;;5.00;4.53;;;;;;;;;;5054371;28;20228;-71
2022/11/21 12:57:57;;;;;;;4.50;4.10;;;;;;;;;;5030398;28;20644;-71
2022/11/21 13:00:27;;;;;;;4.47;4.07;;;;;;;;;;5055112;28;20738;-71
2022/11/21 13:03:04;;;;;;;4.00;3.60;;;;;;;;;;5043829;28;20196;-71
2022/11/21 13:05:33;;;;;;;4.20;3.80;;;;;;;;;;5032508;28;20212;-71
2022/11/21 13:08:03;;;;;;;4.00;3.60;;;;;;;;;;5034584;28;20206;-71
2022/11/21 13:10:30;;;;;;;3.88;3.50;;;;;;;;;;5033596;28;20216;-71
2022/11/21 13:13:02;;;;;;;3.78;3.47;;;;;;;;;;5042773;28;20193;-71
2022/11/21 13:15:32;;;;;;;3.65;3.35;;;;;;;;;;5051339;28;20212;-71
2022/11/21 13:18:01;;;;;;;3.90;3.35;;;;;;;;;;5052447;28;20762;-71
2022/11/21 13:20:31;;;;;;;3.47;3.17;;;;;;;;;;5052347;28;20201;-71
2022/11/21 13:22:59;;;;;;;3.80;3.42;;;;;;;;;;5043069;28;20212;-71
2022/11/21 13:25:38;;;;;;;3.63;3.33;;;;;;;;;;5032593;28;20204;-71
2022/11/21 13:28:31;;;;;;;3.28;2.97;;;;;;;;;;5032817;28;20202;-71
2022/11/21 13:30:59;;;;;;;8.88;3.30;;;;;;;;;;5033074;28;20275;-71
2022/11/21 13:33:44;;;;;;;3.20;3.00;;;;;;;;;;5045140;28;20197;-71
2022/11/21 13:36:12;;;;;;;2.83;2.63;;;;;;;;;;5053603;28;20205;-71
2022/11/21 13:38:54;;;;;;;3.10;2.80;;;;;;;;;;5053263;28;20303;-71
2022/11/21 13:44:40;;;;;;;3.40;2.63;;;;;;;;;;5033211;28;20331;-71
2022/11/21 13:47:12;;;;;;;2.70;2.50;;;;;;;;;;5033938;28;20209;-71
2022/11/21 13:49:42;;;;;;;3.05;2.65;;;;;;;;;;5033793;28;20208;-71
2022/11/21 13:52:13;;;;;;;2.83;2.60;;;;;;;;;;5035452;28;20213;-71
2022/11/21 13:54:56;;;;;;;3.45;2.50;;;;;;;;;;5052491;28;20193;-71
2022/11/21 13:57:39;;;;;;;3.72;2.50;;;;;;;;;;5052801;28;20231;-70
2022/11/21 14:00:22;;;;;;;2.55;2.35;;;;;;;;;;5053095;28;20241;-71
2022/11/21 14:03:17;;;;;;;3.03;2.70;;;;;;;;;;5050834;28;20200;-71
2022/11/21 14:06:02;;;;;;;3.00;2.35;;;;;;;;;;5052649;28;20208;-72
2022/11/21 14:08:30;;;;;;;2.92;2.15;;;;;;;;;;5053061;28;20197;-71
2022/11/21 14:10:58;;;;;;;2.50;2.30;;;;;;;;;;5052668;28;20207;-71
2022/11/21 14:13:28;;;;;;;4.57;2.20;;;;;;;;;;5039401;28;20197;-70
2022/11/21 14:16:06;;;;;;;2.42;2.17;;;;;;;;;;5031494;28;20205;-70
2022/11/21 14:18:36;;;;;;;2.33;2.03;;;;;;;;;;5029754;28;20236;-70
2022/11/21 14:21:07;;;;;;;2.92;2.20;;;;;;;;;;5031339;28;20575;-71
2022/11/21 14:23:36;;;;;;;2.17;1.98;;;;;;;;;;5045324;28;20296;-71
2022/11/21 14:26:05;;;;;;;2.90;2.25;;;;;;;;;;5051722;28;20213;-71
2022/11/21 14:28:33;;;;;;;2.20;2.00;;;;;;;;;;5053212;28;20205;-71
2022/11/21 14:31:02;;;;;;;1.80;1.70;;;;;;;;;;5053103;28;20216;-71
2022/11/21 14:33:32;;;;;;;2.13;2.00;;;;;;;;;;5036401;28;20247;-71
2022/11/21 14:36:05;;;;;;;2.30;2.10;;;;;;;;;;5037216;28;20876;-71
2022/11/21 14:38:36;;;;;;;2.35;2.00;;;;;;;;;;5035995;28;20225;-71
2022/11/21 14:41:27;;;;;;;2.60;1.92;;;;;;;;;;5035486;28;20204;-71
2022/11/21 14:44:14;;;;;;;1.85;1.70;;;;;;;;;;5031586;28;20201;-71
2022/11/21 14:46:42;;;;;;;2.10;1.90;;;;;;;;;;5056650;28;20207;-71
2022/11/21 14:49:28;;;;;;;2.00;1.80;;;;;;;;;;5056185;28;20494;-71
2022/11/21 14:52:02;;;;;;;1.77;1.67;;;;;;;;;;5055815;28;20201;-71
2022/11/21 14:54:31;;;;;;;2.17;1.85;;;;;;;;;;5036820;28;20215;-71
2022/11/21 14:57:00;;;;;;;1.88;1.65;;;;;;;;;;5035177;28;20240;-71
2022/11/21 14:59:29;;;;;;;1.77;1.55;;;;;;;;;;5036315;28;20248;-71
2022/11/21 15:02:01;;;;;;;1.80;1.70;;;;;;;;;;5036089;28;20216;-72
2022/11/21 15:04:30;;;;;;;2.17;1.60;;;;;;;;;;5053867;28;20209;-71
2022/11/21 15:06:58;;;;;;;1.70;1.60;;;;;;;;;;5055265;28;20399;-70
2022/11/21 15:09:28;;;;;;;1.80;1.70;;;;;;;;;;5055278;28;20309;-71
2022/11/21 15:11:59;;;;;;;1.60;1.50;;;;;;;;;;5055519;28;20296;-71
2022/11/21 15:14:34;;;;;;;1.92;1.60;;;;;;;;;;5036762;28;20606;-71
2022/11/21 15:17:02;;;;;;;1.58;1.48;;;;;;;;;;5035894;28;20201;-71
2022/11/21 15:19:31;;;;;;;1.60;1.50;;;;;;;;;;5034666;28;20714;-71
2022/11/21 15:21:59;;;;;;;1.88;1.58;;;;;;;;;;5035124;28;20275;-71
2022/11/21 15:24:36;;;;;;;1.67;1.58;;;;;;;;;;5052914;28;20206;-71
2022/11/21 15:27:23;;;;;;;1.80;1.70;;;;;;;;;;5053589;28;20212;-71
2022/11/21 15:30:01;;;;;;;1.95;1.38;;;;;;;;;;5054000;28;20658;-71
2022/11/21 15:32:28;;;;;;;1.50;1.40;;;;;;;;;;5052795;28;20215;-71
2022/11/21 15:34:56;;;;;;;1.77;1.50;;;;;;;;;;5035348;28;20201;-71